createdAt,value
2022-11-21T00:00:17.120Z,99.8
2022-11-21T00:01:16.591Z,99.8
2022-11-21T00:02:17.267Z,99.8
2022-11-21T00:03:16.761Z,99.8
2022-11-21T00:04:17.265Z,99.8
2022-11-21T00:05:16.774Z,99.8
2022-11-21T00:06:17.285Z,99.8
2022-11-21T00:07:16.878Z,99.8
2022-11-21T00:08:17.459Z,99.8
2022-11-21T00:09:16.955Z,99.8
2022-11-21T00:10:17.468Z,99.8
2022-11-21T00:11:16.990Z,99.8
2022-11-21T00:12:16.630Z,99.8
2022-11-21T00:13:17.128Z,99.8
2022-11-21T00:14:16.608Z,99.8
2022-11-21T00:15:17.086Z,99.8
2022-11-21T00:16:16.593Z,99.8
2022-11-21T00:17:17.102Z,99.8
2022-11-21T00:18:16.610Z,99.8
2022-11-21T00:19:17.075Z,99.8
2022-11-21T00:20:16.582Z,99.8
2022-11-21T00:21:17.087Z,99.8
2022-11-21T00:22:16.470Z,99.8
2022-11-21T00:23:16.964Z,99.7
2022-11-21T00:24:17.474Z,99.7
2022-11-21T00:25:16.990Z,99.7
2022-11-21T00:26:16.482Z,99.7
2022-11-21T00:27:17.005Z,99.6
2022-11-21T00:28:16.498Z,99.6
2022-11-21T00:29:16.967Z,99.5
2022-11-21T00:30:17.445Z,99.4
2022-11-21T00:31:16.915Z,99.3
2022-11-21T00:32:16.917Z,99.3
2022-11-21T00:33:17.432Z,99.4
2022-11-21T00:34:16.942Z,99.5
2022-11-21T00:35:17.425Z,99.5
2022-11-21T00:36:16.914Z,99.5
2022-11-21T00:37:17.417Z,99.5
2022-11-21T00:38:16.902Z,99.5
2022-11-21T00:39:17.370Z,99.5
2022-11-21T00:40:16.872Z,99.5
2022-11-21T00:41:17.560Z,99.5
2022-11-21T00:42:16.746Z,99.5
2022-11-21T00:43:17.217Z,99.5
2022-11-21T00:44:16.674Z,99.5
2022-11-21T00:45:24.580Z,99.5
2022-11-21T00:46:17.221Z,99.5
2022-11-21T00:47:16.679Z,99.5
2022-11-21T00:48:17.172Z,99.5
2022-11-21T00:49:16.638Z,99.5
2022-11-21T00:50:17.126Z,99.5
2022-11-21T00:51:16.633Z,99.5
2022-11-21T00:52:17.264Z,99.5
2022-11-21T00:53:16.766Z,99.4
2022-11-21T00:54:17.244Z,99.5
2022-11-21T00:55:16.733Z,99.5
2022-11-21T00:56:17.193Z,99.5
2022-11-21T00:57:16.685Z,99.5
2022-11-21T00:58:17.159Z,99.5
2022-11-21T00:59:16.636Z,99.4
2022-11-21T01:00:17.138Z,99.3
2022-11-21T01:01:16.824Z,99.2
2022-11-21T01:02:16.908Z,99.2
2022-11-21T01:03:17.406Z,99.2
2022-11-21T01:04:16.872Z,99.2
2022-11-21T01:05:17.375Z,99.3
2022-11-21T01:06:16.857Z,99.3
2022-11-21T01:07:17.428Z,99.3
2022-11-21T01:08:16.964Z,99.3
2022-11-21T01:09:17.448Z,99.2
2022-11-21T01:10:16.941Z,99.2
2022-11-21T01:11:17.431Z,99.2
2022-11-21T01:12:16.869Z,98.9
2022-11-21T01:13:17.337Z,98.7
2022-11-21T01:14:16.815Z,98.7
2022-11-21T01:15:17.304Z,98.8
2022-11-21T01:16:16.789Z,98.7
2022-11-21T01:17:17.291Z,98.8
2022-11-21T01:18:16.789Z,98.7
2022-11-21T01:19:17.301Z,98.4
2022-11-21T01:20:16.778Z,98.8
2022-11-21T01:21:17.284Z,98.7
2022-11-21T01:22:16.719Z,98.4
2022-11-21T01:23:17.213Z,98.6
2022-11-21T01:24:16.674Z,98.7
2022-11-21T01:25:17.163Z,98.5
2022-11-21T01:26:16.635Z,98.6
2022-11-21T01:27:17.091Z,98.8
2022-11-21T01:28:16.570Z,98.9
2022-11-21T01:29:17.052Z,99.0
2022-11-21T01:30:16.574Z,99.0
2022-11-21T01:31:17.059Z,99.0
2022-11-21T01:32:17.387Z,99.0
2022-11-21T01:33:17.002Z,98.9
2022-11-21T01:34:16.472Z,99.1
2022-11-21T01:35:16.949Z,99.1
2022-11-21T01:36:17.579Z,99.0
2022-11-21T01:37:17.053Z,99.0
2022-11-21T01:38:16.531Z,99.0
2022-11-21T01:39:16.992Z,99.0
2022-11-21T01:40:16.460Z,99.2
2022-11-21T01:41:16.933Z,99.2
2022-11-21T01:42:17.204Z,99.2
2022-11-21T01:43:16.683Z,99.2
2022-11-21T01:44:17.185Z,99.0
2022-11-21T01:45:16.700Z,99.1
2022-11-21T01:46:17.176Z,99.0
2022-11-21T01:47:16.672Z,99.0
2022-11-21T01:48:17.155Z,99.0
2022-11-21T01:49:16.636Z,99.1
2022-11-21T01:50:17.132Z,99.2
2022-11-21T01:51:16.653Z,99.2
2022-11-21T01:52:17.164Z,99.2
2022-11-21T01:53:16.627Z,99.2
2022-11-21T01:54:17.099Z,99.0
2022-11-21T01:55:16.568Z,98.9
2022-11-21T01:56:17.035Z,98.9
2022-11-21T01:57:16.510Z,98.4
2022-11-21T01:58:17.015Z,98.4
2022-11-21T01:59:16.532Z,98.5
2022-11-21T02:00:17.032Z,98.6
2022-11-21T02:01:16.640Z,98.7
2022-11-21T02:02:16.756Z,98.7
2022-11-21T02:03:17.256Z,98.4
2022-11-21T02:04:16.742Z,98.7
2022-11-21T02:05:17.228Z,98.6
2022-11-21T02:06:16.682Z,98.8
2022-11-21T02:07:17.211Z,98.8
2022-11-21T02:08:16.713Z,98.9
2022-11-21T02:09:17.175Z,98.9
2022-11-21T02:10:16.656Z,98.7
2022-11-21T02:11:17.110Z,98.6
2022-11-21T02:12:16.773Z,98.5
2022-11-21T02:13:17.272Z,98.5
2022-11-21T02:14:16.779Z,98.3
2022-11-21T02:15:17.280Z,98.2
2022-11-21T02:16:16.752Z,98.3
2022-11-21T02:17:17.251Z,98.7
2022-11-21T02:18:16.734Z,98.8
2022-11-21T02:19:17.205Z,98.8
2022-11-21T02:20:16.688Z,98.8
2022-11-21T02:21:17.166Z,98.8
2022-11-21T02:22:16.527Z,98.7
2022-11-21T02:23:16.994Z,98.7
2022-11-21T02:24:16.455Z,98.6
2022-11-21T02:25:16.932Z,98.8
2022-11-21T02:26:17.419Z,98.8
2022-11-21T02:27:16.926Z,98.7
2022-11-21T02:28:17.428Z,98.7
2022-11-21T02:29:16.916Z,98.8
2022-11-21T02:30:17.396Z,98.9
2022-11-21T02:31:16.906Z,98.9
2022-11-21T02:32:16.648Z,98.8
2022-11-21T02:33:17.103Z,98.8
2022-11-21T02:34:16.558Z,98.8
2022-11-21T02:35:17.059Z,98.9
2022-11-21T02:36:16.557Z,99.0
2022-11-21T02:37:17.035Z,98.8
2022-11-21T02:38:16.497Z,98.8
2022-11-21T02:39:17.008Z,98.8
2022-11-21T02:40:16.486Z,98.6
2022-11-21T02:41:16.956Z,98.5
2022-11-21T02:42:17.324Z,98.5
2022-11-21T02:43:16.797Z,98.4
2022-11-21T02:44:17.282Z,98.2
2022-11-21T02:45:16.761Z,98.2
2022-11-21T02:46:17.269Z,98.2
2022-11-21T02:47:16.755Z,98.3
2022-11-21T02:48:17.230Z,98.3
2022-11-21T02:49:16.686Z,98.1
2022-11-21T02:50:17.175Z,98.2
2022-11-21T02:51:16.639Z,98.3
2022-11-21T02:52:16.513Z,98.5
2022-11-21T02:53:17.006Z,98.4
2022-11-21T02:54:16.495Z,98.5
2022-11-21T02:55:16.971Z,98.5
2022-11-21T02:56:16.672Z,98.6
2022-11-21T02:57:16.597Z,98.8
2022-11-21T02:58:17.081Z,98.8
2022-11-21T02:59:16.585Z,98.8
2022-11-21T03:00:17.107Z,99.0
2022-11-21T03:01:16.830Z,99.0
2022-11-21T03:02:16.897Z,99.0
2022-11-21T03:03:17.381Z,99.0
2022-11-21T03:04:16.847Z,99.0
2022-11-21T03:05:17.295Z,99.0
2022-11-21T03:06:16.758Z,99.0
2022-11-21T03:07:17.322Z,99.0
2022-11-21T03:08:16.830Z,99.0
2022-11-21T03:09:17.321Z,99.1
2022-11-21T03:10:16.805Z,99.1
2022-11-21T03:11:17.300Z,99.0
2022-11-21T03:12:16.963Z,99.0
2022-11-21T03:13:17.470Z,99.0
2022-11-21T03:14:16.969Z,98.9
2022-11-21T03:15:17.476Z,98.9
2022-11-21T03:16:16.974Z,99.0
2022-11-21T03:17:16.471Z,98.7
2022-11-21T03:18:16.940Z,98.6
2022-11-21T03:19:17.407Z,98.5
2022-11-21T03:20:16.889Z,98.3
2022-11-21T03:21:17.385Z,98.2
2022-11-21T03:22:16.789Z,98.4
2022-11-21T03:23:17.309Z,98.5
2022-11-21T03:24:16.807Z,98.4
2022-11-21T03:25:17.298Z,98.5
2022-11-21T03:26:16.792Z,98.4
2022-11-21T03:27:17.288Z,98.5
2022-11-21T03:28:16.771Z,98.4
2022-11-21T03:29:17.241Z,98.5
2022-11-21T03:30:16.742Z,98.6
2022-11-21T03:31:17.255Z,98.3
2022-11-21T03:32:16.512Z,98.3
2022-11-21T03:33:16.964Z,98.3
2022-11-21T03:34:17.450Z,98.2
2022-11-21T03:35:16.914Z,98.3
2022-11-21T03:36:17.400Z,98.3
2022-11-21T03:37:16.493Z,98.3
2022-11-21T03:38:16.979Z,98.3
2022-11-21T03:39:16.474Z,98.5
2022-11-21T03:40:16.965Z,98.4
2022-11-21T03:41:17.459Z,98.8
2022-11-21T03:42:16.609Z,98.6
2022-11-21T03:43:17.070Z,98.7
2022-11-21T03:44:16.542Z,98.5
2022-11-21T03:45:17.014Z,98.4
2022-11-21T03:46:16.507Z,98.6
2022-11-21T03:47:16.989Z,98.7
2022-11-21T03:48:16.468Z,98.6
2022-11-21T03:49:16.961Z,98.6
2022-11-21T03:50:17.444Z,98.7
2022-11-21T03:51:16.951Z,98.6
2022-11-21T03:52:16.756Z,98.7
2022-11-21T03:53:17.235Z,98.6
2022-11-21T03:54:16.728Z,98.4
2022-11-21T03:55:17.213Z,98.6
2022-11-21T03:56:16.709Z,98.8
2022-11-21T03:57:17.208Z,98.8
2022-11-21T03:58:16.676Z,98.7
2022-11-21T03:59:17.138Z,98.8
2022-11-21T04:00:16.612Z,98.9
2022-11-21T04:01:17.164Z,99.0
2022-11-21T04:02:16.517Z,98.8
2022-11-21T04:03:17.004Z,98.8
2022-11-21T04:04:16.488Z,98.9
2022-11-21T04:05:16.979Z,98.8
2022-11-21T04:06:16.445Z,98.8
2022-11-21T04:07:17.040Z,98.9
2022-11-21T04:08:16.548Z,98.8
2022-11-21T04:09:17.055Z,98.7
2022-11-21T04:10:16.505Z,98.7
2022-11-21T04:11:17.016Z,98.7
2022-11-21T04:12:17.338Z,98.7
2022-11-21T04:13:16.803Z,98.6
2022-11-21T04:14:17.308Z,98.8
2022-11-21T04:15:16.770Z,98.8
2022-11-21T04:16:17.248Z,99.0
2022-11-21T04:17:16.738Z,98.8
2022-11-21T04:18:17.921Z,98.9
2022-11-21T04:19:17.418Z,99.0
2022-11-21T04:20:16.954Z,99.0
2022-11-21T04:21:17.463Z,99.0
2022-11-21T04:22:16.757Z,99.0
2022-11-21T04:23:17.233Z,99.0
2022-11-21T04:24:16.711Z,99.0
2022-11-21T04:25:17.187Z,98.8
2022-11-21T04:26:16.656Z,99.0
2022-11-21T04:27:17.110Z,99.1
2022-11-21T04:28:16.572Z,99.1
2022-11-21T04:29:17.042Z,99.1
2022-11-21T04:30:16.542Z,99.0
2022-11-21T04:31:17.038Z,99.0
2022-11-21T04:32:17.346Z,99.0
2022-11-21T04:33:16.837Z,98.8
2022-11-21T04:34:17.322Z,98.8
2022-11-21T04:35:16.835Z,98.8
2022-11-21T04:36:17.321Z,98.8
2022-11-21T04:37:16.964Z,98.8
2022-11-21T04:38:16.467Z,98.9
2022-11-21T04:39:16.991Z,99.0
2022-11-21T04:40:16.472Z,99.0
2022-11-21T04:41:16.919Z,99.0
2022-11-21T04:42:17.400Z,99.0
2022-11-21T04:43:16.888Z,99.0
2022-11-21T04:44:17.403Z,98.8
2022-11-21T04:45:16.881Z,99.0
2022-11-21T04:46:17.459Z,99.0
2022-11-21T04:47:16.975Z,98.8
2022-11-21T04:48:16.460Z,98.7
2022-11-21T04:49:16.938Z,98.7
2022-11-21T04:50:17.418Z,98.6
2022-11-21T04:51:16.917Z,98.3
2022-11-21T04:52:16.766Z,98.3
2022-11-21T04:53:17.242Z,98.4
2022-11-21T04:54:16.698Z,98.3
2022-11-21T04:55:17.168Z,98.2
2022-11-21T04:56:16.932Z,98.1
2022-11-21T04:57:17.409Z,98.0
2022-11-21T04:58:16.872Z,98.2
2022-11-21T04:59:17.365Z,97.8
2022-11-21T05:00:24.524Z,97.8
2022-11-21T05:01:17.276Z,97.9
2022-11-21T05:02:16.730Z,97.5
2022-11-21T05:03:17.200Z,97.5
2022-11-21T05:04:16.662Z,97.4
2022-11-21T05:05:17.165Z,97.8
2022-11-21T05:06:16.636Z,97.5
2022-11-21T05:07:17.243Z,97.3
2022-11-21T05:08:16.723Z,97.1
2022-11-21T05:09:17.212Z,97.0
2022-11-21T05:10:16.696Z,97.3
2022-11-21T05:11:17.182Z,97.2
2022-11-21T05:12:16.918Z,97.3
2022-11-21T05:13:17.445Z,97.6
2022-11-21T05:14:16.919Z,97.4
2022-11-21T05:15:24.969Z,97.2
2022-11-21T05:16:16.674Z,97.2
2022-11-21T05:17:17.203Z,96.9
2022-11-21T05:18:16.674Z,96.7
2022-11-21T05:19:17.163Z,96.8
2022-11-21T05:20:16.650Z,96.7
2022-11-21T05:21:17.116Z,96.7
2022-11-21T05:22:17.402Z,96.5
2022-11-21T05:23:16.920Z,96.5
2022-11-21T05:24:17.411Z,96.9
2022-11-21T05:25:16.969Z,96.6
2022-11-21T05:26:16.443Z,96.6
2022-11-21T05:27:16.903Z,96.7
2022-11-21T05:28:17.366Z,96.8
2022-11-21T05:29:16.856Z,96.5
2022-11-21T05:30:17.354Z,96.4
2022-11-21T05:31:16.842Z,96.3
2022-11-21T05:32:16.560Z,96.4
2022-11-21T05:33:17.041Z,96.7
2022-11-21T05:34:16.515Z,96.4
2022-11-21T05:35:17.016Z,96.6
2022-11-21T05:36:16.467Z,96.2
2022-11-21T05:37:16.927Z,96.6
2022-11-21T05:38:17.404Z,97.0
2022-11-21T05:39:16.862Z,96.8
2022-11-21T05:40:17.385Z,96.8
2022-11-21T05:41:16.962Z,96.4
2022-11-21T05:42:17.288Z,96.6
2022-11-21T05:43:16.742Z,96.4
2022-11-21T05:44:17.228Z,96.7
2022-11-21T05:45:16.705Z,96.7
2022-11-21T05:46:17.394Z,97.0
2022-11-21T05:47:16.876Z,97.0
2022-11-21T05:48:17.356Z,96.9
2022-11-21T05:49:16.842Z,97.1
2022-11-21T05:50:17.302Z,97.0
2022-11-21T05:51:16.748Z,97.0
2022-11-21T05:52:16.498Z,97.1
2022-11-21T05:53:16.987Z,97.0
2022-11-21T05:54:16.463Z,96.8
2022-11-21T05:55:16.979Z,96.7
2022-11-21T05:56:16.450Z,96.8
2022-11-21T05:57:16.954Z,97.2
2022-11-21T05:58:17.450Z,97.1
2022-11-21T05:59:16.934Z,97.2
2022-11-21T06:00:17.402Z,97.2
2022-11-21T06:01:16.893Z,97.0
2022-11-21T06:02:17.347Z,96.8
2022-11-21T06:03:16.922Z,96.8
2022-11-21T06:04:17.398Z,97.0
2022-11-21T06:05:16.877Z,96.8
2022-11-21T06:06:24.933Z,96.9
2022-11-21T06:07:16.715Z,97.0
2022-11-21T06:08:17.254Z,97.0
2022-11-21T06:09:16.731Z,97.2
2022-11-21T06:10:17.219Z,97.1
2022-11-21T06:11:16.690Z,97.4
2022-11-21T06:12:24.153Z,97.2
2022-11-21T06:13:16.800Z,97.2
2022-11-21T06:14:17.328Z,97.2
2022-11-21T06:15:16.894Z,97.2
2022-11-21T06:16:17.398Z,97.2
2022-11-21T06:17:16.862Z,97.2
2022-11-21T06:18:17.381Z,97.3
2022-11-21T06:19:16.851Z,97.3
2022-11-21T06:20:17.358Z,97.5
2022-11-21T06:21:16.863Z,97.4
2022-11-21T06:22:17.264Z,97.4
2022-11-21T06:23:16.759Z,97.2
2022-11-21T06:24:22.565Z,97.4
2022-11-21T06:25:17.102Z,97.4
2022-11-21T06:26:16.587Z,97.4
2022-11-21T06:27:17.048Z,97.3
2022-11-21T06:28:16.529Z,97.2
2022-11-21T06:29:17.011Z,97.3
2022-11-21T06:30:22.392Z,97.2
2022-11-21T06:31:17.012Z,97.0
2022-11-21T06:32:17.452Z,97.2
2022-11-21T06:33:16.992Z,97.2
2022-11-21T06:34:16.483Z,97.3
2022-11-21T06:35:16.951Z,97.5
2022-11-21T06:36:17.484Z,97.7
2022-11-21T06:37:16.966Z,97.4
2022-11-21T06:38:16.436Z,97.3
2022-11-21T06:39:16.920Z,97.4
2022-11-21T06:40:17.466Z,97.5
2022-11-21T06:41:16.944Z,97.5
2022-11-21T06:42:16.942Z,97.2
2022-11-21T06:43:17.433Z,97.1
2022-11-21T06:44:16.918Z,97.3
2022-11-21T06:45:17.390Z,97.5
2022-11-21T06:46:16.861Z,97.6
2022-11-21T06:47:17.341Z,97.7
2022-11-21T06:48:16.848Z,97.5
2022-11-21T06:49:17.327Z,97.7
2022-11-21T06:50:16.837Z,97.7
2022-11-21T06:51:17.432Z,97.6
2022-11-21T06:52:16.853Z,97.6
2022-11-21T06:53:17.323Z,97.8
2022-11-21T06:54:17.370Z,97.5
2022-11-21T06:55:16.886Z,97.7
2022-11-21T06:56:17.362Z,97.8
2022-11-21T06:57:16.811Z,97.6
2022-11-21T06:58:17.284Z,97.6
2022-11-21T06:59:16.775Z,97.4
2022-11-21T07:00:17.266Z,97.3
2022-11-21T07:01:16.838Z,97.5
2022-11-21T07:02:16.674Z,97.3
2022-11-21T07:03:17.162Z,97.3
2022-11-21T07:04:16.690Z,97.6
2022-11-21T07:05:17.164Z,97.4
2022-11-21T07:06:16.666Z,97.6
2022-11-21T07:07:17.313Z,97.6
2022-11-21T07:08:16.780Z,97.5
2022-11-21T07:09:33.865Z,97.7
2022-11-21T07:10:16.642Z,97.4
2022-11-21T07:11:25.971Z,97.4
2022-11-21T07:12:16.517Z,97.7
2022-11-21T07:13:16.983Z,97.7
2022-11-21T07:14:16.507Z,97.5
2022-11-21T07:15:17.000Z,97.7
2022-11-21T07:16:16.485Z,97.8
2022-11-21T07:17:16.998Z,97.5
2022-11-21T07:18:16.459Z,97.8
2022-11-21T07:19:16.930Z,98.0
2022-11-21T07:20:17.425Z,98.1
2022-11-21T07:21:16.926Z,98.1
2022-11-21T07:22:17.039Z,97.9
2022-11-21T07:23:16.502Z,98.1
2022-11-21T07:24:17.005Z,98.0
2022-11-21T07:25:16.524Z,98.2
2022-11-21T07:26:17.016Z,98.2
2022-11-21T07:27:16.501Z,98.0
2022-11-21T07:28:16.995Z,97.9
2022-11-21T07:29:16.509Z,98.2
2022-11-21T07:30:17.042Z,98.0
2022-11-21T07:31:16.585Z,98.0
2022-11-21T07:32:17.030Z,97.9
2022-11-21T07:33:16.488Z,98.0
2022-11-21T07:34:16.968Z,97.9
2022-11-21T07:35:17.422Z,97.6
2022-11-21T07:36:16.897Z,97.8
2022-11-21T07:37:17.358Z,97.9
2022-11-21T07:38:16.827Z,98.0
2022-11-21T07:39:17.310Z,97.9
2022-11-21T07:40:16.815Z,97.5
2022-11-21T07:41:17.334Z,97.5
2022-11-21T07:42:16.957Z,97.4
2022-11-21T07:43:17.462Z,97.2
2022-11-21T07:44:16.932Z,97.8
2022-11-21T07:45:17.456Z,97.5
2022-11-21T07:46:16.927Z,97.0
2022-11-21T07:47:17.388Z,97.3
2022-11-21T07:48:16.865Z,97.2
2022-11-21T07:49:17.360Z,96.9
2022-11-21T07:50:16.846Z,96.5
2022-11-21T07:51:17.346Z,96.8
2022-11-21T07:52:16.795Z,96.9
2022-11-21T07:53:17.278Z,96.7
2022-11-21T07:54:16.791Z,96.7
2022-11-21T07:55:17.298Z,96.4
2022-11-21T07:56:16.802Z,96.7
2022-11-21T07:57:17.281Z,96.7
2022-11-21T07:58:16.778Z,96.6
2022-11-21T07:59:17.270Z,96.5
2022-11-21T08:00:16.731Z,96.2
2022-11-21T08:01:17.396Z,96.1
2022-11-21T08:02:16.733Z,96.2
2022-11-21T08:03:17.244Z,96.2
2022-11-21T08:04:16.721Z,96.2
2022-11-21T08:05:17.241Z,95.8
2022-11-21T08:06:16.701Z,95.8
2022-11-21T08:07:17.251Z,95.6
2022-11-21T08:08:16.800Z,95.5
2022-11-21T08:09:17.295Z,95.5
2022-11-21T08:10:16.804Z,95.6
2022-11-21T08:11:17.350Z,95.5
2022-11-21T08:12:17.005Z,95.3
2022-11-21T08:13:16.524Z,95.0
2022-11-21T08:14:17.104Z,95.2
2022-11-21T08:15:16.585Z,94.9
2022-11-21T08:16:17.056Z,94.8
2022-11-21T08:17:16.543Z,94.7
2022-11-21T08:18:17.029Z,94.6
2022-11-21T08:19:16.507Z,94.3
2022-11-21T08:20:17.003Z,94.2
2022-11-21T08:21:20.311Z,94.3
2022-11-21T08:22:16.876Z,94.0
2022-11-21T08:23:17.395Z,94.5
2022-11-21T08:24:16.883Z,94.3
2022-11-21T08:25:17.382Z,94.7
2022-11-21T08:26:16.893Z,94.3
2022-11-21T08:27:17.344Z,94.1
2022-11-21T08:28:16.805Z,94.2
2022-11-21T08:29:17.279Z,94.1
2022-11-21T08:30:16.761Z,94.0
2022-11-21T08:31:17.291Z,93.8
2022-11-21T08:32:16.829Z,93.9
2022-11-21T08:33:17.354Z,93.9
2022-11-21T08:34:16.839Z,94.0
2022-11-21T08:35:17.306Z,94.2
2022-11-21T08:36:16.778Z,93.8
2022-11-21T08:37:17.283Z,93.5
2022-11-21T08:38:16.768Z,93.1
2022-11-21T08:39:17.273Z,93.2
2022-11-21T08:40:16.771Z,93.0
2022-11-21T08:41:18.131Z,92.3
2022-11-21T08:42:16.581Z,92.3
2022-11-21T08:43:17.062Z,92.2
2022-11-21T08:44:16.533Z,92.6
2022-11-21T08:45:17.022Z,92.4
2022-11-21T08:46:16.509Z,92.5
2022-11-21T08:47:16.992Z,92.4
2022-11-21T08:48:16.512Z,92.2
2022-11-21T08:49:17.003Z,91.9
2022-11-21T08:50:16.498Z,91.2
2022-11-21T08:51:16.976Z,90.0
2022-11-21T08:52:16.608Z,89.3
2022-11-21T08:53:17.071Z,89.3
2022-11-21T08:54:16.717Z,89.7
2022-11-21T08:55:17.194Z,90.0
2022-11-21T08:56:16.694Z,90.3
2022-11-21T08:57:17.167Z,90.5
2022-11-21T08:58:16.668Z,90.4
2022-11-21T08:59:17.180Z,90.5
2022-11-21T09:00:16.671Z,90.0
2022-11-21T09:01:17.277Z,89.9
2022-11-21T09:02:16.601Z,89.5
2022-11-21T09:03:26.759Z,89.8
2022-11-21T09:04:16.626Z,89.6
2022-11-21T09:05:17.121Z,89.8
2022-11-21T09:06:16.595Z,89.7
2022-11-21T09:07:17.158Z,89.4
2022-11-21T09:08:16.655Z,89.6
2022-11-21T09:09:25.259Z,90.0
2022-11-21T09:10:17.042Z,90.0
2022-11-21T09:11:16.514Z,90.0
2022-11-21T09:12:16.500Z,89.7
2022-11-21T09:13:17.007Z,89.8
2022-11-21T09:14:16.469Z,90.0
2022-11-21T09:15:16.972Z,89.9
2022-11-21T09:16:20.876Z,90.6
2022-11-21T09:17:17.442Z,90.1
2022-11-21T09:18:16.957Z,90.5
2022-11-21T09:19:17.464Z,90.4
2022-11-21T09:20:17.054Z,90.7
2022-11-21T09:21:16.616Z,90.5
2022-11-21T09:22:16.760Z,90.5
2022-11-21T09:23:17.269Z,90.9
2022-11-21T09:24:16.774Z,90.4
2022-11-21T09:25:17.245Z,90.4
2022-11-21T09:26:16.706Z,90.3
2022-11-21T09:27:17.171Z,90.4
2022-11-21T09:28:16.666Z,90.3
2022-11-21T09:29:17.170Z,90.5
2022-11-21T09:30:16.662Z,90.1
2022-11-21T09:31:17.134Z,90.8
2022-11-21T09:32:17.395Z,90.7
2022-11-21T09:33:17.139Z,90.5
2022-11-21T09:34:16.648Z,90.1
2022-11-21T09:35:17.157Z,89.8
2022-11-21T09:36:16.644Z,90.1
2022-11-21T09:37:17.128Z,90.1
2022-11-21T09:38:24.153Z,90.1
2022-11-21T09:39:16.870Z,90.0
2022-11-21T09:40:17.350Z,90.0
2022-11-21T09:41:16.843Z,89.7
2022-11-21T09:42:16.779Z,89.8
2022-11-21T09:43:17.305Z,90.1
2022-11-21T09:44:16.796Z,90.0
2022-11-21T09:45:17.283Z,90.1
2022-11-21T09:46:16.800Z,90.0
2022-11-21T09:47:17.295Z,89.8
2022-11-21T09:48:16.780Z,89.8
2022-11-21T09:49:17.290Z,89.9
2022-11-21T09:50:16.822Z,90.1
2022-11-21T09:51:17.410Z,90.0
2022-11-21T09:52:16.755Z,89.7
2022-11-21T09:53:17.225Z,89.7
2022-11-21T09:54:16.742Z,90.5
2022-11-21T09:55:17.220Z,90.0
2022-11-21T09:56:16.751Z,90.1
2022-11-21T09:57:17.240Z,90.0
2022-11-21T09:58:16.708Z,90.6
2022-11-21T09:59:17.206Z,90.3
2022-11-21T10:00:16.692Z,90.9
2022-11-21T10:01:17.481Z,91.0
2022-11-21T10:02:16.702Z,90.3
2022-11-21T10:03:22.654Z,90.3
2022-11-21T10:04:17.205Z,90.5
2022-11-21T10:05:16.668Z,90.5
2022-11-21T10:06:17.159Z,90.5
2022-11-21T10:07:16.815Z,90.6
2022-11-21T10:08:17.334Z,91.3
2022-11-21T10:09:16.816Z,91.0
2022-11-21T10:10:17.301Z,91.0
2022-11-21T10:11:20.462Z,90.6
2022-11-21T10:12:16.652Z,90.9
2022-11-21T10:13:17.131Z,90.8
2022-11-21T10:14:16.613Z,91.0
2022-11-21T10:15:17.134Z,90.8
2022-11-21T10:16:16.596Z,91.3
2022-11-21T10:17:17.071Z,90.6
2022-11-21T10:18:16.588Z,90.7
2022-11-21T10:19:17.100Z,90.7
2022-11-21T10:20:16.583Z,90.3
2022-11-21T10:21:17.054Z,90.5
2022-11-21T10:22:17.295Z,90.5
2022-11-21T10:23:16.785Z,90.8
2022-11-21T10:24:17.276Z,89.9
2022-11-21T10:25:16.751Z,89.8
2022-11-21T10:26:17.302Z,89.5
2022-11-21T10:27:16.823Z,89.2
2022-11-21T10:28:17.312Z,89.2
2022-11-21T10:29:16.797Z,89.8
2022-11-21T10:30:17.272Z,89.7
2022-11-21T10:31:16.776Z,89.9
2022-11-21T10:32:16.434Z,89.4
2022-11-21T10:33:16.898Z,89.5
2022-11-21T10:34:17.385Z,89.3
2022-11-21T10:35:16.917Z,89.4
2022-11-21T10:36:17.414Z,89.9
2022-11-21T10:37:16.894Z,89.5
2022-11-21T10:38:17.404Z,89.8
2022-11-21T10:39:16.908Z,90.1
2022-11-21T10:40:17.403Z,90.7
2022-11-21T10:41:16.887Z,90.0
2022-11-21T10:42:24.797Z,89.7
2022-11-21T10:43:17.468Z,89.7
2022-11-21T10:44:16.992Z,89.3
2022-11-21T10:45:16.453Z,89.5
2022-11-21T10:46:16.917Z,89.3
2022-11-21T10:47:17.378Z,89.2
2022-11-21T10:48:16.846Z,89.7
2022-11-21T10:49:17.340Z,89.6
2022-11-21T10:50:16.836Z,89.2
2022-11-21T10:51:17.348Z,89.2
2022-11-21T10:52:16.988Z,88.7
2022-11-21T10:53:16.510Z,88.7
2022-11-21T10:54:16.995Z,88.5
2022-11-21T10:55:16.471Z,88.7
2022-11-21T10:56:16.973Z,88.6
2022-11-21T10:57:16.470Z,88.6
2022-11-21T10:58:16.956Z,89.5
2022-11-21T10:59:17.442Z,89.3
2022-11-21T11:00:17.110Z,89.7
2022-11-21T11:01:16.800Z,90.0
2022-11-21T11:02:16.926Z,90.0
2022-11-21T11:03:17.415Z,89.5
2022-11-21T11:04:29.253Z,89.4
2022-11-21T11:05:16.756Z,89.4
2022-11-21T11:06:17.247Z,89.5
2022-11-21T11:07:16.855Z,89.5
2022-11-21T11:08:17.344Z,89.7
2022-11-21T11:09:17.190Z,89.9
2022-11-21T11:10:16.882Z,89.9
2022-11-21T11:11:17.411Z,89.6
2022-11-21T11:12:16.936Z,89.5
2022-11-21T11:13:46.671Z,89.3
2022-11-21T11:14:16.880Z,89.2
2022-11-21T11:15:17.401Z,89.2
2022-11-21T11:16:16.875Z,89.3
2022-11-21T11:17:17.348Z,89.1
2022-11-21T11:18:16.844Z,89.4
2022-11-21T11:19:17.341Z,89.1
2022-11-21T11:20:16.819Z,89.1
2022-11-21T11:21:17.553Z,88.8
2022-11-21T11:22:16.725Z,88.8
2022-11-21T11:23:17.211Z,88.8
2022-11-21T11:24:16.692Z,88.8
2022-11-21T11:25:17.210Z,88.7
2022-11-21T11:26:16.665Z,88.9
2022-11-21T11:27:17.132Z,89.2
2022-11-21T11:28:16.626Z,89.0
2022-11-21T11:29:17.109Z,89.5
2022-11-21T11:30:16.577Z,89.4
2022-11-21T11:31:17.070Z,88.7
2022-11-21T11:32:22.113Z,88.8
2022-11-21T11:33:16.747Z,88.7
2022-11-21T11:34:17.249Z,88.8
2022-11-21T11:35:16.733Z,88.6
2022-11-21T11:36:17.216Z,88.9
2022-11-21T11:37:16.692Z,88.6
2022-11-21T11:38:17.175Z,88.6
2022-11-21T11:39:16.654Z,88.7
2022-11-21T11:40:17.187Z,88.0
2022-11-21T11:41:16.653Z,88.2
2022-11-21T11:42:17.382Z,88.0
2022-11-21T11:43:16.863Z,88.2
2022-11-21T11:44:17.360Z,88.1
2022-11-21T11:45:16.842Z,88.4
2022-11-21T11:46:17.371Z,87.8
2022-11-21T11:47:16.864Z,87.0
2022-11-21T11:48:17.348Z,86.7
2022-11-21T11:49:21.691Z,86.7
2022-11-21T11:50:17.287Z,87.4
2022-11-21T11:51:16.774Z,87.7
2022-11-21T11:52:17.141Z,86.7
2022-11-21T11:53:16.608Z,87.2
2022-11-21T11:54:17.123Z,86.9
2022-11-21T11:55:16.619Z,86.7
2022-11-21T11:56:17.068Z,87.0
2022-11-21T11:57:16.549Z,86.7
2022-11-21T11:58:17.046Z,87.2
2022-11-21T11:59:16.571Z,87.8
2022-11-21T12:00:17.055Z,88.0
2022-11-21T12:01:16.566Z,88.1
2022-11-21T12:02:17.108Z,88.2
2022-11-21T12:03:16.625Z,88.7
2022-11-21T12:04:17.108Z,89.1
2022-11-21T12:05:16.579Z,89.1
2022-11-21T12:06:17.045Z,89.2
2022-11-21T12:08:39.294Z,89.5
2022-11-21T12:08:42.451Z,89.6
2022-11-21T12:09:16.616Z,89.7
2022-11-21T12:10:17.175Z,89.7
2022-11-21T12:11:25.001Z,89.9
2022-11-21T12:12:17.267Z,89.7
2022-11-21T12:13:16.773Z,89.4
2022-11-21T12:14:17.265Z,89.4
2022-11-21T12:15:16.761Z,89.8
2022-11-21T12:16:17.234Z,89.6
2022-11-21T12:17:16.764Z,89.5
2022-11-21T12:18:17.252Z,88.8
2022-11-21T12:19:16.753Z,88.9
2022-11-21T12:20:17.268Z,89.2
2022-11-21T12:21:16.764Z,89.1
2022-11-21T12:22:17.116Z,88.5
2022-11-21T12:23:16.604Z,88.7
2022-11-21T12:24:17.071Z,88.5
2022-11-21T12:25:16.572Z,88.1
2022-11-21T12:26:17.071Z,87.5
2022-11-21T12:27:16.576Z,87.1
2022-11-21T12:28:17.086Z,86.8
2022-11-21T12:29:16.603Z,86.3
2022-11-21T12:30:17.065Z,86.1
2022-11-21T12:31:16.547Z,86.0
2022-11-21T12:32:16.997Z,86.0
2022-11-21T12:33:16.483Z,85.9
2022-11-21T12:34:16.949Z,85.2
2022-11-21T12:35:17.434Z,85.1
2022-11-21T12:36:19.113Z,84.9
2022-11-21T12:37:16.671Z,84.3
2022-11-21T12:38:17.170Z,84.8
2022-11-21T12:39:16.628Z,84.4
2022-11-21T12:40:17.114Z,84.0
2022-11-21T12:41:16.597Z,84.8
2022-11-21T12:42:17.283Z,83.8
2022-11-21T12:43:16.799Z,84.1
2022-11-21T12:44:17.291Z,84.2
2022-11-21T12:45:16.769Z,84.7
2022-11-21T12:46:18.312Z,85.2
2022-11-21T12:47:16.806Z,84.7
2022-11-21T12:48:17.256Z,85.2
2022-11-21T12:49:16.739Z,85.8
2022-11-21T12:50:17.217Z,84.7
2022-11-21T12:51:16.703Z,84.7
2022-11-21T12:52:17.160Z,85.7
2022-11-21T12:53:16.666Z,85.6
2022-11-21T12:54:17.149Z,85.2
2022-11-21T12:55:16.636Z,85.7
2022-11-21T12:56:17.112Z,84.9
2022-11-21T12:57:16.614Z,85.7
2022-11-21T12:58:17.098Z,85.6
2022-11-21T12:59:16.580Z,86.1
2022-11-21T13:00:17.055Z,86.2
2022-11-21T13:01:22.127Z,86.5
2022-11-21T13:02:16.952Z,87.0
2022-11-21T13:03:17.399Z,86.9
2022-11-21T13:04:16.876Z,86.7
2022-11-21T13:05:17.398Z,87.0
2022-11-21T13:06:16.885Z,86.7
2022-11-21T13:07:17.479Z,86.7
2022-11-21T13:08:24.808Z,86.3
2022-11-21T13:09:16.540Z,86.2
2022-11-21T13:10:17.096Z,86.3
2022-11-21T13:11:16.582Z,86.0
2022-11-21T13:12:17.056Z,86.2
2022-11-21T13:13:16.539Z,85.1
2022-11-21T13:14:16.997Z,85.7
2022-11-21T13:15:16.493Z,85.3
2022-11-21T13:16:16.985Z,83.6
2022-11-21T13:17:16.454Z,82.5
2022-11-21T13:18:16.920Z,82.5